Aérodrome :
LOGIN :

S'inscrire | Disclaimer

   EN    FR    IT 

 










Légende :    VFR   VFR Marginal   IFR   IFR Intensif   IFR Très Intensif
Visi : 
Plafond : 
>= 8 km
>= 3000ft
5 à 8 km
1000 à 3000 ft
1500m à 5 km
500 à 1000 ft
800 à 1500m
200 à 500 ft
< 800m
< 200 ft
Symboles :   Orages  Brouillard  Fortes neiges  Fortes précipitations  Vent > 20 kt
SIGMETs :   Divers  Orages  Givrage  Turbulence  Onde Orograph.  Cendres Volcan.






- Altitude de l'aérodrome : 1276 ft
- Code IATA : STR


EDDS - Stuttgart

DERNIER METAR :
  • 272120Z 28028G41KT 9000 -SN SCT021 BKN032 03/M01 Q1004

METARs EXPIRÉS :
  • 272050Z 28027G37KT 9000 -SN SCT013 BKN022 02/M01 Q1002 NOSIG
  • 272020Z 27028KT 9000 -SN SCT017 BKN024 02/M00 Q1000 NOSIG
  • 271950Z 27032G50KT 9000 -SN SCT019 BKN025 02/M00 Q0998 NOSIG
  • 271920Z 26031G41KT 9999 -RA SCT019 BKN026 02/M01 Q0995 R25/290294 NOSIG
  • 271850Z 26027G41KT 9999 -RA SCT017 BKN047 02/M00 Q0993 R25/290294 NOSIG

TAF TAF EDDS
Valide du 27 à 18h jusqu'au 28 à 18h UTC


271700Z 2718/2818 19025G40KT 9999 BKN020
TEMPO 2718/2721 27035G55KT 3000 RASN
PROB30
TEMPO 2721/2802 4000 -SN BKN014
BECMG 2722/2802 28015G25KT
BECMG 2805/2807 25010KT



MET'MAP, la Météo Aéronautique d'un coup d'oeil ! - Copyright ORBIFLY Décembre 2007 - Disclaimer

ORBIFLY MET'MAP TEAM :

Programmation & Développement : Alexandra Zaïnal
Sur une idée originale de : Baudouin d'Aumeries
Assistance à la programmation : Marc-Olivier Méhu
Soutien technique & logistique : Manuel Goepfert

Contact : metmap@orbifly.com




SOURCES & CREDITS :

   NOAA